Time;durP1;ratioP1;P1;durP2;ratioP2;P2;SDS_P1;SDS_P2;PMS_P1;PMS_P2;Temp;Humidity;BMP_temperature;BMP_pressure;BME280_temperature;BME280_humidity;BME280_pressure;Samples;Min_cycle;Max_cycle;Signal;HPM_P1;HPM_P2
2023/12/05 00:00:35;;;;;;;4.70;3.57;;;19.10;55.30;;;;;;4992866;28;20181;-68
2023/12/05 00:03:02;;;;;;;3.77;3.20;;;19.10;55.30;;;;;;4993063;28;20503;-67
2023/12/05 00:05:28;;;;;;;4.63;3.10;;;19.10;55.30;;;;;;4992662;28;20677;-67
2023/12/05 00:07:53;;;;;;;3.90;3.03;;;19.10;55.40;;;;;;4992657;28;20461;-68
2023/12/05 00:10:19;;;;;;;4.17;3.70;;;19.10;55.30;;;;;;4992682;28;20263;-68
2023/12/05 00:12:45;;;;;;;3.57;3.00;;;19.10;55.30;;;;;;4992628;28;20188;-68
2023/12/05 00:15:11;;;;;;;3.90;3.10;;;19.10;55.30;;;;;;4991093;28;20607;-68
2023/12/05 00:17:36;;;;;;;4.90;3.20;;;19.10;55.40;;;;;;4992454;28;20291;-68
2023/12/05 00:20:03;;;;;;;5.60;3.57;;;19.10;55.30;;;;;;4992543;28;20312;-68
2023/12/05 00:22:28;;;;;;;4.10;3.70;;;19.10;55.30;;;;;;4992485;28;20680;-67
2023/12/05 00:24:54;;;;;;;5.67;3.87;;;19.10;55.30;;;;;;4992251;28;20587;-68
2023/12/05 00:27:20;;;;;;;3.90;3.00;;;19.10;55.30;;;;;;4991733;28;20181;-67
2023/12/05 00:29:48;;;;;;;3.50;2.90;;;19.10;55.30;;;;;;4991382;28;20197;-68
2023/12/05 00:32:14;;;;;;;3.67;3.03;;;19.10;55.30;;;;;;4991738;28;20427;-67
2023/12/05 00:34:40;;;;;;;4.40;3.03;;;19.10;55.30;;;;;;4991223;28;20417;-68
2023/12/05 00:37:06;;;;;;;4.07;3.37;;;19.10;55.30;;;;;;4991201;28;20542;-67
2023/12/05 00:39:31;;;;;;;4.00;3.37;;;19.00;55.30;;;;;;4991195;28;20560;-68
2023/12/05 00:41:57;;;;;;;5.40;3.90;;;19.10;55.30;;;;;;4991171;28;20173;-68
2023/12/05 00:44:23;;;;;;;3.60;3.03;;;19.00;55.30;;;;;;4991096;28;20255;-67
2023/12/05 00:46:48;;;;;;;4.30;3.43;;;19.00;55.30;;;;;;4991030;28;20195;-68
2023/12/05 00:49:14;;;;;;;4.60;3.50;;;19.00;55.30;;;;;;4991308;28;20808;-67
2023/12/05 00:51:39;;;;;;;3.80;3.13;;;19.00;55.30;;;;;;4991025;28;20200;-68
2023/12/05 00:54:05;;;;;;;3.30;2.80;;;19.00;55.30;;;;;;4990146;28;20185;-67
2023/12/05 00:56:31;;;;;;;4.00;3.07;;;19.00;55.30;;;;;;4990821;28;20226;-67
2023/12/05 00:58:56;;;;;;;3.87;3.33;;;19.00;55.30;;;;;;4990939;28;20268;-68
2023/12/05 01:01:23;;;;;;;4.83;3.17;;;19.00;55.30;;;;;;4990929;28;20173;-68
2023/12/05 01:03:51;;;;;;;3.80;2.90;;;19.00;55.30;;;;;;4991110;28;20275;-68
2023/12/05 01:06:17;;;;;;;3.83;3.43;;;19.00;55.30;;;;;;4989634;28;20526;-68
2023/12/05 01:08:43;;;;;;;4.30;3.60;;;19.00;55.30;;;;;;4990770;28;20416;-67
2023/12/05 01:11:11;;;;;;;5.20;3.27;;;19.00;55.30;;;;;;4990631;28;20412;-67
2023/12/05 01:13:37;;;;;;;4.23;3.00;;;19.10;55.40;;;;;;4990776;28;20212;-68
2023/12/05 01:16:04;;;;;;;3.37;2.60;;;19.00;55.30;;;;;;4989136;28;20482;-68
2023/12/05 01:18:30;;;;;;;5.03;3.63;;;19.00;55.30;;;;;;4990599;28;20415;-68
2023/12/05 01:20:55;;;;;;;3.93;3.13;;;19.00;55.30;;;;;;4990580;28;20785;-68
2023/12/05 01:23:21;;;;;;;3.47;2.80;;;19.00;55.30;;;;;;4990619;28;20176;-68
2023/12/05 01:25:46;;;;;;;3.53;3.15;;;19.00;55.30;;;;;;4949213;28;1213684;-68
2023/12/05 01:28:12;;;;;;;3.20;2.73;;;19.00;55.30;;;;;;4991289;28;20698;-68
2023/12/05 01:30:38;;;;;;;3.60;3.00;;;19.00;55.30;;;;;;4991195;28;20205;-68
2023/12/05 01:33:04;;;;;;;3.30;2.97;;;19.00;55.30;;;;;;4989797;28;20264;-67
2023/12/05 01:35:29;;;;;;;3.80;2.97;;;19.00;55.30;;;;;;4991169;28;20444;-68
2023/12/05 01:37:55;;;;;;;3.43;2.90;;;19.00;55.40;;;;;;4991011;28;20255;-68
2023/12/05 01:40:20;;;;;;;3.57;2.83;;;19.00;55.40;;;;;;4991116;28;20231;-67
2023/12/05 01:42:46;;;;;;;3.50;2.80;;;19.00;55.40;;;;;;4991031;28;20181;-68
2023/12/05 01:45:12;;;;;;;3.97;3.00;;;19.00;55.40;;;;;;4989649;28;20201;-67
2023/12/05 01:47:40;;;;;;;3.80;2.70;;;18.90;55.30;;;;;;4991005;28;20172;-68
2023/12/05 01:50:10;;;;;;;4.97;3.03;;;18.90;55.30;;;;;;4991252;28;20278;-67
2023/12/05 01:52:41;;;;;;;3.30;3.00;;;18.90;55.30;;;;;;4990929;28;20400;-67
2023/12/05 01:55:09;;;;;;;4.17;2.97;;;18.90;55.40;;;;;;4990884;28;20803;-68
2023/12/05 01:57:35;;;;;;;4.17;3.00;;;18.90;55.40;;;;;;4991136;28;20459;-67
2023/12/05 02:00:04;;;;;;;4.10;3.13;;;18.90;55.40;;;;;;4990859;28;20414;-68
2023/12/05 02:02:30;;;;;;;5.40;2.70;;;18.90;55.40;;;;;;4990773;28;20416;-68
2023/12/05 02:04:56;;;;;;;3.30;2.43;;;18.90;55.50;;;;;;4990315;28;20539;-69
2023/12/05 02:07:21;;;;;;;3.50;2.57;;;18.90;55.40;;;;;;4990194;28;20179;-68
2023/12/05 02:09:48;;;;;;;3.90;2.53;;;18.90;55.40;;;;;;4990757;28;20620;-68
2023/12/05 02:12:14;;;;;;;5.17;2.93;;;18.90;55.40;;;;;;4990712;28;20179;-68
2023/12/05 02:14:39;;;;;;;3.90;2.80;;;18.90;55.50;;;;;;4990554;28;20844;-68
2023/12/05 02:17:28;;;;;;;3.40;2.90;;;18.90;55.50;;;;;;4990609;28;20205;-68
2023/12/05 02:20:28;;;;;;;4.27;2.93;;;18.90;55.50;;;;;;4987415;28;20673;-68
2023/12/05 02:23:06;;;;;;;3.03;2.30;;;18.90;55.50;;;;;;4978764;28;20424;-68
2023/12/05 02:25:40;;;;;;;4.87;3.90;;;18.90;55.50;;;;;;4990305;28;20951;-68
2023/12/05 02:28:06;;;;;;;3.43;2.53;;;18.90;55.50;;;;;;4990566;28;20408;-67
2023/12/05 02:30:32;;;;;;;3.13;2.53;;;18.90;55.50;;;;;;4990507;28;20412;-69
2023/12/05 02:32:58;;;;;;;3.57;2.87;;;18.90;55.60;;;;;;4990421;28;20971;-68
2023/12/05 02:35:24;;;;;;;2.97;2.67;;;18.90;55.50;;;;;;4990389;28;20252;-69
2023/12/05 02:38:11;;;;;;;3.10;2.80;;;18.80;55.40;;;;;;4990410;28;20193;-68
2023/12/05 02:41:03;;;;;;;2.90;2.30;;;18.80;55.40;;;;;;4990767;28;20479;-68
2023/12/05 02:43:37;;;;;;;2.90;2.43;;;18.80;55.50;;;;;;4990705;28;20423;-67
2023/12/05 02:46:04;;;;;;;3.07;2.63;;;18.90;55.50;;;;;;4990352;28;20460;-67
2023/12/05 02:48:30;;;;;;;4.13;2.77;;;18.80;55.50;;;;;;4990297;28;20410;-68
2023/12/05 02:50:56;;;;;;;3.63;2.90;;;18.80;55.50;;;;;;4990282;28;20404;-68
2023/12/05 02:53:22;;;;;;;2.63;2.27;;;18.90;55.60;;;;;;4990311;28;20415;-68
2023/12/05 02:55:48;;;;;;;3.13;2.50;;;18.80;55.50;;;;;;4990145;28;20939;-68
2023/12/05 02:58:14;;;;;;;3.47;2.37;;;18.80;55.50;;;;;;4990227;28;20201;-68
2023/12/05 03:00:40;;;;;;;4.00;2.70;;;18.80;55.50;;;;;;4988831;28;20412;-67
2023/12/05 03:03:06;;;;;;;2.70;2.30;;;18.80;55.50;;;;;;4990208;28;20400;-68
2023/12/05 03:05:32;;;;;;;3.40;2.50;;;18.80;55.50;;;;;;4990126;28;20428;-67
2023/12/05 03:07:57;;;;;;;3.53;2.90;;;18.80;55.50;;;;;;4990184;28;20201;-67
2023/12/05 03:10:23;;;;;;;2.93;2.57;;;18.80;55.50;;;;;;4990125;28;20177;-68
2023/12/05 03:12:48;;;;;;;3.47;2.80;;;18.80;55.50;;;;;;4990336;28;20546;-68
2023/12/05 03:15:14;;;;;;;2.90;2.43;;;18.80;55.50;;;;;;4990134;28;20200;-68
2023/12/05 03:17:40;;;;;;;2.67;2.43;;;18.80;55.50;;;;;;4991797;28;20203;-67
2023/12/05 03:20:06;;;;;;;3.13;2.50;;;18.80;55.50;;;;;;4993577;28;20173;-68
2023/12/05 03:22:31;;;;;;;3.27;2.20;;;18.80;55.50;;;;;;4993627;28;20646;-68
2023/12/05 03:24:57;;;;;;;3.40;2.50;;;18.80;55.50;;;;;;4993190;28;20536;-67
2023/12/05 03:27:23;;;;;;;2.63;2.40;;;18.80;55.50;;;;;;4993509;28;20975;-66
2023/12/05 03:29:49;;;;;;;3.73;2.57;;;18.80;55.50;;;;;;4993349;28;20746;-68
2023/12/05 03:32:14;;;;;;;2.53;2.13;;;18.80;56.00;;;;;;4993292;28;20181;-68
2023/12/05 03:34:40;;;;;;;3.10;2.60;;;18.80;55.50;;;;;;4993496;28;20181;-68
2023/12/05 03:37:05;;;;;;;3.00;2.23;;;18.80;55.50;;;;;;4993191;28;20593;-68
2023/12/05 03:39:31;;;;;;;3.90;3.00;;;18.80;55.50;;;;;;4993218;28;20180;-67
2023/12/05 03:41:56;;;;;;;2.80;2.40;;;18.80;55.50;;;;;;4993152;28;20176;-68
2023/12/05 03:44:22;;;;;;;3.07;2.60;;;18.80;55.50;;;;;;4993018;28;20169;-67
2023/12/05 03:46:47;;;;;;;3.53;2.50;;;18.80;55.50;;;;;;4992964;28;20268;-68
2023/12/05 03:49:13;;;;;;;4.30;2.30;;;18.80;55.50;;;;;;4993020;28;20173;-68
2023/12/05 03:51:38;;;;;;;2.87;2.57;;;18.80;55.50;;;;;;4992972;28;20181;-66
2023/12/05 03:54:04;;;;;;;2.50;2.00;;;18.80;55.50;;;;;;4992952;28;20432;-67
2023/12/05 03:56:30;;;;;;;3.93;2.30;;;18.80;55.50;;;;;;4992757;28;20577;-68
2023/12/05 03:58:55;;;;;;;3.90;2.90;;;18.80;55.50;;;;;;4992910;28;20663;-68
2023/12/05 04:01:21;;;;;;;2.63;2.40;;;18.80;55.50;;;;;;4992786;28;20183;-68
2023/12/05 04:03:46;;;;;;;2.70;2.30;;;18.80;55.60;;;;;;4992947;28;20707;-68
2023/12/05 04:06:27;;;;;;;2.97;2.60;;;18.80;55.50;;;;;;4992706;28;20196;-67
2023/12/05 04:08:53;;;;;;;2.37;2.10;;;18.80;55.50;;;;;;4992966;28;20543;-68
2023/12/05 04:11:29;;;;;;;2.43;2.23;;;18.80;55.50;;;;;;4992564;28;20566;-67
2023/12/05 04:13:55;;;;;;;2.53;2.23;;;18.80;55.50;;;;;;4992616;28;20164;-68
2023/12/05 04:16:21;;;;;;;2.97;2.30;;;18.80;55.50;;;;;;4992438;28;20436;-68
2023/12/05 04:18:46;;;;;;;2.47;2.20;;;18.80;55.60;;;;;;4992561;28;20184;-67
2023/12/05 04:21:12;;;;;;;2.57;2.30;;;18.80;55.50;;;;;;4992435;28;20299;-67
2023/12/05 04:23:37;;;;;;;3.33;2.70;;;18.80;55.50;;;;;;4992382;28;20177;-68
2023/12/05 04:26:03;;;;;;;3.57;2.13;;;18.80;55.50;;;;;;4992161;28;20689;-68
2023/12/05 04:28:31;;;;;;;3.47;2.40;;;18.80;55.50;;;;;;4991456;28;20185;-67
2023/12/05 04:30:57;;;;;;;2.80;2.27;;;18.80;55.50;;;;;;4990985;28;20188;-68
2023/12/05 04:33:23;;;;;;;2.67;2.40;;;18.80;55.50;;;;;;4992231;28;20416;-68
2023/12/05 04:35:48;;;;;;;2.30;2.03;;;18.80;55.50;;;;;;4992147;28;20197;-67
2023/12/05 04:38:15;;;;;;;2.50;2.00;;;18.80;55.50;;;;;;4992181;28;20212;-67
2023/12/05 04:40:40;;;;;;;2.53;2.30;;;18.70;55.50;;;;;;4992172;28;20177;-67
2023/12/05 04:43:06;;;;;;;2.57;2.30;;;18.80;55.50;;;;;;4992063;28;20827;-67
2023/12/05 04:45:32;;;;;;;2.53;1.90;;;18.80;55.50;;;;;;4992015;28;20201;-67
2023/12/05 04:47:57;;;;;;;3.90;2.40;;;18.80;55.60;;;;;;4992005;28;20173;-66
2023/12/05 04:50:23;;;;;;;2.13;1.93;;;18.80;55.50;;;;;;4991952;28;20184;-67
2023/12/05 04:52:48;;;;;;;3.37;2.70;;;18.70;55.50;;;;;;4991915;28;20227;-68
2023/12/05 04:55:14;;;;;;;2.87;2.13;;;18.80;55.50;;;;;;4992157;28;20197;-67
2023/12/05 04:57:40;;;;;;;2.60;2.20;;;18.70;55.50;;;;;;4991727;28;20197;-67
2023/12/05 05:00:06;;;;;;;2.63;1.97;;;18.70;55.50;;;;;;4991811;28;20257;-68
2023/12/05 05:02:34;;;;;;;3.23;2.10;;;18.70;56.00;;;;;;4991718;28;20165;-68
2023/12/05 05:04:59;;;;;;;2.50;2.00;;;18.70;55.50;;;;;;4991661;28;20997;-68
2023/12/05 05:07:25;;;;;;;4.80;2.63;;;18.70;55.50;;;;;;4991678;28;20205;-69
2023/12/05 05:09:51;;;;;;;2.40;1.90;;;18.70;55.50;;;;;;4991832;28;20236;-68
2023/12/05 05:12:17;;;;;;;2.23;1.90;;;18.70;55.50;;;;;;4991537;28;20173;-68
2023/12/05 05:14:43;;;;;;;2.30;2.10;;;18.70;55.50;;;;;;4991497;28;20933;-68
2023/12/05 05:17:09;;;;;;;3.00;1.90;;;18.70;55.50;;;;;;4991667;28;20254;-68
2023/12/05 05:19:35;;;;;;;2.87;2.13;;;18.70;55.50;;;;;;4991435;28;20435;-68
2023/12/05 05:22:00;;;;;;;2.37;1.97;;;18.70;55.50;;;;;;4991431;28;20248;-68
2023/12/05 05:24:26;;;;;;;3.33;2.23;;;18.70;55.50;;;;;;4991097;28;20173;-68
2023/12/05 05:26:52;;;;;;;2.90;1.93;;;18.70;55.50;;;;;;4991205;28;20239;-68
2023/12/05 05:29:18;;;;;;;2.10;1.80;;;18.70;55.50;;;;;;4991253;28;20227;-68
2023/12/05 05:31:43;;;;;;;3.00;2.23;;;18.70;55.50;;;;;;4989920;28;20915;-68
2023/12/05 05:34:09;;;;;;;2.67;2.13;;;18.70;55.50;;;;;;4991471;28;20188;-67
2023/12/05 05:36:35;;;;;;;2.27;2.03;;;18.70;55.50;;;;;;4991040;28;20259;-69
2023/12/05 05:39:00;;;;;;;2.00;1.80;;;18.70;55.50;;;;;;4989637;28;20185;-68
2023/12/05 05:41:26;;;;;;;2.23;2.03;;;18.70;55.50;;;;;;4990825;28;20173;-68
2023/12/05 05:43:52;;;;;;;3.20;2.10;;;18.70;55.50;;;;;;4991015;28;20636;-69
2023/12/05 05:46:18;;;;;;;1.80;1.50;;;18.70;55.50;;;;;;4990944;28;20435;-68
2023/12/05 05:48:43;;;;;;;2.40;2.00;;;18.70;55.50;;;;;;4991242;28;20926;-67
2023/12/05 05:51:09;;;;;;;2.13;1.93;;;18.70;55.50;;;;;;4990975;28;20169;-68
2023/12/05 05:53:35;;;;;;;1.73;1.60;;;18.70;55.50;;;;;;4990904;28;20260;-67
2023/12/05 05:56:01;;;;;;;3.53;2.20;;;18.70;55.50;;;;;;4990828;28;20216;-68
2023/12/05 05:58:27;;;;;;;3.57;2.93;;;18.70;55.50;;;;;;4990880;28;20459;-68
2023/12/05 06:00:53;;;;;;;2.40;1.87;;;18.70;55.60;;;;;;4990748;28;20404;-68
2023/12/05 06:03:19;;;;;;;2.63;1.93;;;18.70;55.50;;;;;;4990638;28;20790;-67
2023/12/05 06:05:44;;;;;;;4.20;2.00;;;18.70;55.50;;;;;;4990525;28;20196;-68
2023/12/05 06:08:10;;;;;;;2.77;2.17;;;18.70;55.50;;;;;;4989338;28;20561;-68
2023/12/05 06:10:36;;;;;;;3.50;2.40;;;18.70;55.60;;;;;;4990713;28;20548;-68
2023/12/05 06:13:02;;;;;;;2.03;1.83;;;18.70;55.50;;;;;;4990775;28;20219;-67
2023/12/05 06:15:27;;;;;;;2.80;2.20;;;18.70;55.50;;;;;;4990909;28;20201;-68
2023/12/05 06:17:54;;;;;;;2.23;2.00;;;18.70;55.60;;;;;;4990597;28;20951;-68
2023/12/05 06:20:19;;;;;;;2.33;2.00;;;18.70;55.50;;;;;;4990586;28;20249;-68
2023/12/05 06:22:45;;;;;;;2.20;2.00;;;18.70;55.60;;;;;;4990685;28;20842;-68
2023/12/05 06:25:10;;;;;;;2.67;2.27;;;18.70;55.50;;;;;;4990201;28;20208;-68
2023/12/05 06:27:36;;;;;;;2.90;2.13;;;18.70;55.60;;;;;;4990593;28;20180;-68
2023/12/05 06:30:02;;;;;;;3.40;2.13;;;18.70;55.60;;;;;;4990732;28;20199;-69
2023/12/05 06:32:28;;;;;;;3.33;1.80;;;18.70;55.60;;;;;;4990502;28;20232;-68
2023/12/05 06:34:53;;;;;;;2.40;2.20;;;18.70;55.60;;;;;;4990434;28;20436;-68
2023/12/05 06:37:20;;;;;;;2.40;2.10;;;18.70;55.60;;;;;;4990374;28;20279;-68
2023/12/05 06:39:46;;;;;;;2.47;2.27;;;18.70;55.60;;;;;;4990391;28;20177;-68
2023/12/05 06:42:11;;;;;;;2.73;1.80;;;18.70;55.70;;;;;;4989187;28;20419;-67
2023/12/05 06:44:37;;;;;;;2.80;2.10;;;18.70;55.60;;;;;;4990381;28;20636;-69
2023/12/05 06:47:02;;;;;;;2.70;1.80;;;18.70;55.60;;;;;;4990620;28;20188;-68
2023/12/05 06:49:28;;;;;;;2.27;1.90;;;18.70;55.60;;;;;;4990340;28;20170;-68
2023/12/05 06:51:57;;;;;;;2.23;2.03;;;18.80;55.60;;;;;;4990944;28;20189;-68
2023/12/05 06:54:22;;;;;;;2.27;1.53;;;18.80;55.60;;;;;;4994126;28;20165;-68
2023/12/05 06:56:48;;;;;;;1.80;1.60;;;18.80;55.50;;;;;;4994177;28;20838;-68
2023/12/05 06:59:14;;;;;;;2.47;1.90;;;18.80;55.50;;;;;;4993957;28;20173;-68
2023/12/05 07:01:40;;;;;;;2.87;1.80;;;18.80;55.60;;;;;;4993676;28;20188;-69
2023/12/05 07:04:06;;;;;;;2.77;1.87;;;18.80;55.50;;;;;;4994112;28;20177;-68
2023/12/05 07:06:32;;;;;;;2.57;2.17;;;18.80;55.60;;;;;;4994021;28;20482;-68
2023/12/05 07:08:58;;;;;;;2.60;1.90;;;18.80;55.50;;;;;;4993776;28;20967;-69
2023/12/05 07:11:27;;;;;;;2.13;1.90;;;18.90;56.10;;;;;;4993871;28;20672;-69
2023/12/05 07:13:55;;;;;;;2.43;1.80;;;18.90;55.50;;;;;;4993797;28;20169;-68
2023/12/05 07:16:21;;;;;;;1.70;1.43;;;18.90;55.50;;;;;;4993690;28;20442;-69
2023/12/05 07:18:49;;;;;;;1.77;1.63;;;18.90;55.50;;;;;;4993761;28;20983;-69
2023/12/05 07:21:14;;;;;;;2.30;1.60;;;18.90;55.50;;;;;;4991298;28;20532;-69
2023/12/05 07:23:40;;;;;;;2.80;2.00;;;18.90;55.50;;;;;;4993531;28;20415;-68
2023/12/05 07:26:06;;;;;;;2.30;2.07;;;18.90;55.50;;;;;;4993444;28;20259;-69
2023/12/05 07:28:31;;;;;;;2.93;1.70;;;18.90;55.40;;;;;;4993479;28;20177;-69
2023/12/05 07:30:57;;;;;;;3.00;1.90;;;18.90;55.40;;;;;;4993419;28;20177;-69
2023/12/05 07:33:22;;;;;;;2.90;1.93;;;19.00;55.50;;;;;;4993665;28;20181;-69
2023/12/05 07:35:48;;;;;;;1.83;1.60;;;19.00;55.50;;;;;;4993288;28;20546;-69
2023/12/05 07:38:15;;;;;;;2.70;1.90;;;19.00;55.50;;;;;;4993272;28;20303;-68
2023/12/05 07:40:40;;;;;;;2.40;1.47;;;19.00;55.50;;;;;;4993260;28;20619;-68
2023/12/05 07:43:06;;;;;;;2.83;2.00;;;19.00;55.40;;;;;;4993265;28;20419;-68
2023/12/05 07:45:31;;;;;;;2.30;1.80;;;19.00;55.40;;;;;;4993138;28;20202;-67
2023/12/05 07:47:57;;;;;;;2.83;2.10;;;19.00;55.50;;;;;;4993220;28;20528;-68
2023/12/05 07:50:23;;;;;;;2.50;1.77;;;19.00;55.40;;;;;;4993055;28;20260;-68
2023/12/05 07:52:49;;;;;;;2.43;2.03;;;19.00;55.40;;;;;;4993096;28;20235;-68
2023/12/05 07:55:16;;;;;;;1.80;1.53;;;19.00;55.40;;;;;;4993192;28;20205;-68
2023/12/05 07:57:42;;;;;;;3.10;1.90;;;19.00;55.40;;;;;;4992823;28;20455;-68
2023/12/05 08:00:14;;;;;;;2.97;1.60;;;19.10;55.50;;;;;;4992916;28;20489;-68
2023/12/05 08:02:40;;;;;;;2.07;1.67;;;19.10;55.50;;;;;;4993074;28;20177;-68
2023/12/05 08:05:06;;;;;;;3.00;1.70;;;19.10;55.50;;;;;;4992767;28;21005;-68
2023/12/05 08:07:31;;;;;;;3.30;2.00;;;19.10;55.50;;;;;;4992796;28;20191;-68
2023/12/05 08:09:57;;;;;;;2.20;1.90;;;19.10;55.50;;;;;;4992738;28;20486;-67
2023/12/05 08:12:22;;;;;;;2.10;1.83;;;19.10;55.50;;;;;;4992657;28;20562;-68
2023/12/05 08:14:48;;;;;;;2.30;1.93;;;19.10;55.50;;;;;;4992602;28;20200;-67
2023/12/05 08:17:13;;;;;;;1.83;1.50;;;19.10;55.50;;;;;;4992509;28;20303;-68
2023/12/05 08:19:39;;;;;;;2.60;2.00;;;19.10;55.50;;;;;;4992493;28;20188;-67
2023/12/05 08:22:05;;;;;;;2.90;2.07;;;19.10;55.50;;;;;;4992507;28;20256;-68
2023/12/05 08:24:30;;;;;;;2.27;1.80;;;19.10;55.50;;;;;;4992191;28;20703;-68
2023/12/05 08:26:56;;;;;;;2.10;1.70;;;19.10;55.50;;;;;;4992479;28;20173;-68
2023/12/05 08:29:21;;;;;;;2.43;1.80;;;19.10;55.60;;;;;;4992355;28;20181;-68
2023/12/05 08:31:47;;;;;;;2.23;1.90;;;19.10;55.50;;;;;;4992340;28;20184;-68
2023/12/05 08:34:13;;;;;;;2.30;1.80;;;19.10;55.60;;;;;;4992464;28;20177;-68
2023/12/05 08:36:42;;;;;;;2.40;1.80;;;19.10;55.60;;;;;;4992191;28;20494;-68
2023/12/05 08:39:08;;;;;;;1.93;1.50;;;19.10;55.60;;;;;;4992323;28;20173;-68
2023/12/05 08:41:34;;;;;;;1.87;1.37;;;19.10;55.60;;;;;;4992083;28;20899;-68
2023/12/05 08:43:59;;;;;;;2.50;1.90;;;19.10;55.60;;;;;;4992178;28;20235;-68
2023/12/05 08:46:25;;;;;;;2.00;1.80;;;19.10;55.60;;;;;;4991928;28;20193;-68
2023/12/05 08:48:50;;;;;;;3.07;1.73;;;19.10;55.60;;;;;;4992007;28;20180;-68
2023/12/05 08:51:18;;;;;;;1.90;1.50;;;19.10;55.60;;;;;;4991922;28;20180;-68
2023/12/05 08:53:44;;;;;;;3.63;1.83;;;19.00;55.60;;;;;;4992150;28;20169;-69
2023/12/05 08:56:10;;;;;;;2.27;2.07;;;19.10;55.60;;;;;;4991804;28;20439;-68
2023/12/05 08:58:37;;;;;;;2.40;1.90;;;19.10;55.70;;;;;;4991984;28;20311;-68
2023/12/05 09:01:03;;;;;;;2.03;1.70;;;19.00;55.60;;;;;;4991684;28;20456;-68
2023/12/05 09:03:29;;;;;;;1.83;1.47;;;19.00;55.60;;;;;;4991666;28;20419;-67
2023/12/05 09:05:54;;;;;;;2.27;1.77;;;19.00;55.60;;;;;;4991630;28;20432;-68
2023/12/05 09:08:21;;;;;;;2.27;1.63;;;19.10;55.70;;;;;;5001393;28;20797;-68
2023/12/05 09:10:47;;;;;;;2.13;1.70;;;19.00;55.60;;;;;;5011159;28;20181;-68
2023/12/05 09:13:13;;;;;;;2.00;1.47;;;19.00;55.60;;;;;;5011097;28;20418;-68
2023/12/05 09:15:38;;;;;;;2.20;1.70;;;19.00;55.60;;;;;;5009242;28;20207;-68
2023/12/05 09:18:04;;;;;;;2.57;1.70;;;19.00;55.60;;;;;;5010951;28;20458;-68
2023/12/05 09:20:29;;;;;;;1.67;1.47;;;19.00;55.60;;;;;;5011029;28;20176;-67
2023/12/05 09:22:55;;;;;;;2.53;1.73;;;19.00;55.70;;;;;;5011160;28;20613;-68
2023/12/05 09:25:21;;;;;;;2.30;1.60;;;19.00;55.60;;;;;;5010754;28;20208;-68
2023/12/05 09:27:46;;;;;;;1.70;1.60;;;19.00;55.70;;;;;;5010904;28;20674;-68
2023/12/05 09:30:13;;;;;;;2.73;1.80;;;19.00;55.70;;;;;;5009205;28;20230;-67
2023/12/05 09:32:38;;;;;;;2.03;1.57;;;19.00;55.70;;;;;;5010869;28;20183;-67
2023/12/05 09:35:04;;;;;;;1.90;1.43;;;19.10;55.80;;;;;;5010705;28;20435;-69
2023/12/05 09:37:30;;;;;;;2.97;1.90;;;19.00;55.70;;;;;;5010663;28;20200;-68
2023/12/05 09:39:57;;;;;;;1.90;1.43;;;19.00;55.70;;;;;;5010629;28;20403;-68
2023/12/05 09:42:25;;;;;;;1.90;1.67;;;19.00;55.70;;;;;;5010635;28;20419;-67
2023/12/05 09:44:51;;;;;;;2.00;1.57;;;19.00;55.70;;;;;;5010465;28;20435;-68
2023/12/05 09:47:21;;;;;;;2.93;2.07;;;19.00;55.70;;;;;;5010342;28;20465;-68
2023/12/05 09:49:47;;;;;;;2.90;1.90;;;19.00;55.70;;;;;;5010830;28;20419;-67
2023/12/05 09:52:14;;;;;;;1.93;1.30;;;19.00;55.70;;;;;;5010671;28;20414;-68
2023/12/05 09:54:44;;;;;;;1.70;1.50;;;19.00;55.70;;;;;;5010380;28;20451;-68
2023/12/05 09:57:13;;;;;;;1.80;1.70;;;19.00;55.70;;;;;;5010342;28;20470;-67
2023/12/05 09:59:40;;;;;;;2.07;1.87;;;19.00;55.70;;;;;;5010650;28;20735;-68
2023/12/05 10:02:06;;;;;;;2.53;2.20;;;19.00;55.70;;;;;;5010454;28;20403;-68
2023/12/05 10:04:58;;;;;;;1.40;1.30;;;19.10;55.70;;;;;;5008862;28;20418;-68
2023/12/05 10:07:27;;;;;;;3.80;1.63;;;19.10;55.70;;;;;;5010377;28;20430;-68
2023/12/05 10:09:55;;;;;;;5.10;3.20;;;19.10;55.70;;;;;;5010216;28;20446;-68
2023/12/05 10:12:20;;;;;;;3.77;2.50;;;19.10;55.70;;;;;;5008910;28;20929;-67
2023/12/05 10:14:46;;;;;;;8.97;5.43;;;19.10;55.70;;;;;;5010117;28;20450;-67
2023/12/05 10:17:11;;;;;;;15.40;9.00;;;19.10;55.70;;;;;;5010148;28;20697;-67
2023/12/05 10:19:37;;;;;;;24.93;13.27;;;19.10;55.70;;;;;;5010210;28;20172;-68
2023/12/05 10:22:03;;;;;;;31.20;18.80;;;19.10;55.70;;;;;;5010233;28;20172;-67
2023/12/05 10:24:48;;;;;;;34.93;22.13;;;19.10;55.60;;;;;;5009984;28;20176;-68
2023/12/05 10:27:15;;;;;;;52.63;30.77;;;19.10;55.70;;;;;;5011309;28;20969;-67
2023/12/05 10:29:42;;;;;;;47.70;31.23;;;19.10;55.60;;;;;;5014229;28;20418;-67
2023/12/05 10:32:09;;;;;;;52.90;31.33;;;19.20;55.70;;;;;;5012660;28;20509;-68
2023/12/05 10:34:49;;;;;;;65.37;37.43;;;19.20;55.70;;;;;;5014109;28;20493;-68
2023/12/05 10:37:22;;;;;;;61.23;37.77;;;19.20;55.70;;;;;;5013963;28;20454;-68
2023/12/05 10:39:52;;;;;;;67.83;42.17;;;19.20;55.70;;;;;;5014239;28;20421;-68
2023/12/05 10:42:19;;;;;;;61.27;37.80;;;19.20;55.70;;;;;;5013924;28;20422;-68
2023/12/05 10:44:45;;;;;;;65.97;39.10;;;19.20;55.70;;;;;;5014082;28;20980;-68
2023/12/05 10:47:12;;;;;;;67.10;42.20;;;19.20;55.80;;;;;;5012354;28;20421;-68
2023/12/05 10:49:41;;;;;;;65.10;42.60;;;19.20;55.80;;;;;;5014052;28;20411;-68
2023/12/05 10:52:08;;;;;;;73.00;45.50;;;19.20;55.80;;;;;;5013715;28;20411;-68
2023/12/05 10:54:34;;;;;;;70.97;42.20;;;19.20;55.80;;;;;;5013589;28;20419;-68
2023/12/05 10:57:00;;;;;;;82.37;48.97;;;19.20;55.80;;;;;;5013593;28;20509;-68
2023/12/05 10:59:28;;;;;;;75.77;46.00;;;19.20;55.80;;;;;;5013607;28;20247;-68
2023/12/05 11:01:58;;;;;;;107.27;56.90;;;19.20;55.80;;;;;;5013619;28;20417;-68
2023/12/05 11:04:27;;;;;;;84.23;53.67;;;19.20;55.90;;;;;;5013705;28;20430;-68
2023/12/05 11:06:53;;;;;;;75.73;49.07;;;19.20;55.90;;;;;;5013611;28;20967;-68
2023/12/05 11:09:20;;;;;;;87.47;51.60;;;19.20;55.90;;;;;;5012038;28;20454;-68
2023/12/05 11:11:48;;;;;;;86.53;52.60;;;19.20;55.90;;;;;;5013467;28;20466;-68
2023/12/05 11:14:15;;;;;;;79.80;49.40;;;19.20;55.90;;;;;;5011987;28;20796;-68
2023/12/05 11:16:48;;;;;;;85.50;48.83;;;19.20;55.90;;;;;;5013110;28;20933;-68
2023/12/05 11:19:38;;;;;;;78.60;48.77;;;19.20;55.90;;;;;;5013331;28;20395;-68
2023/12/05 11:22:26;;;;;;;85.50;50.63;;;19.20;55.90;;;;;;5013246;28;20770;-68
2023/12/05 11:25:09;;;;;;;84.27;47.97;;;19.20;55.90;;;;;;5012959;28;20453;-68
2023/12/05 11:27:44;;;;;;;85.90;48.73;;;19.20;55.90;;;;;;5013217;28;20518;-68
2023/12/05 11:30:15;;;;;;;74.07;46.00;;;19.20;55.90;;;;;;5013364;28;20408;-68
2023/12/05 11:33:02;;;;;;;78.70;47.70;;;19.10;55.90;;;;;;5013005;28;20768;-68
2023/12/05 11:35:49;;;;;;;81.70;48.70;;;19.20;55.90;;;;;;5012887;28;20586;-68
2023/12/05 11:38:19;;;;;;;85.23;49.07;;;19.20;55.90;;;;;;5012580;28;20450;-68
2023/12/05 11:41:14;;;;;;;83.17;50.43;;;19.10;55.90;;;;;;5013177;28;20422;-68
2023/12/05 11:43:42;;;;;;;88.90;53.10;;;19.20;55.90;;;;;;5012784;28;20395;-68
2023/12/05 11:46:09;;;;;;;89.30;51.97;;;19.10;55.90;;;;;;5012778;28;20447;-68
2023/12/05 11:48:34;;;;;;;79.93;48.63;;;19.10;55.90;;;;;;5013011;28;20408;-68
2023/12/05 11:51:04;;;;;;;80.53;49.23;;;19.10;55.80;;;;;;5012703;28;20853;-67
2023/12/05 11:53:30;;;;;;;70.13;44.40;;;19.10;55.80;;;;;;5012647;28;20188;-68
2023/12/05 11:55:57;;;;;;;70.10;44.27;;;19.10;56.30;;;;;;5012563;28;20432;-68
2023/12/05 11:58:29;;;;;;;74.43;44.67;;;19.20;55.80;;;;;;5012782;28;20465;-68
2023/12/05 12:01:09;;;;;;;69.30;44.77;;;19.20;55.80;;;;;;5012466;28;20415;-68
2023/12/05 12:03:49;;;;;;;68.73;44.80;;;19.20;55.80;;;;;;5012362;28;20841;-68
2023/12/05 12:06:17;;;;;;;65.73;43.30;;;19.20;55.80;;;;;;5012483;28;20423;-68
2023/12/05 12:08:45;;;;;;;70.20;43.50;;;19.20;55.80;;;;;;5012489;28;20850;-69
2023/12/05 12:11:11;;;;;;;60.57;41.93;;;19.20;55.80;;;;;;5012517;28;20469;-68
2023/12/05 12:13:37;;;;;;;60.20;40.17;;;19.20;56.30;;;;;;5012517;28;20553;-68
2023/12/05 12:16:03;;;;;;;64.53;41.90;;;19.20;55.70;;;;;;5012203;28;20909;-68
2023/12/05 12:18:30;;;;;;;65.33;41.27;;;19.20;55.70;;;;;;5012120;28;20200;-68
2023/12/05 12:20:56;;;;;;;70.80;42.80;;;19.20;55.70;;;;;;5012075;28;20403;-68
2023/12/05 12:23:22;;;;;;;65.80;42.67;;;19.20;55.70;;;;;;5012229;28;20517;-68
2023/12/05 12:25:55;;;;;;;62.70;41.60;;;19.20;55.70;;;;;;5012001;28;21028;-68
2023/12/05 12:28:30;;;;;;;63.27;41.93;;;19.20;55.70;;;;;;5012058;28;20166;-68
2023/12/05 12:30:57;;;;;;;62.80;39.97;;;19.30;55.70;;;;;;5011907;28;20975;-68
2023/12/05 12:33:28;;;;;;;59.90;42.00;;;19.30;55.70;;;;;;5011957;28;20469;-69
2023/12/05 12:35:54;;;;;;;65.60;39.53;;;19.30;55.70;;;;;;5012003;28;20441;-69
2023/12/05 12:38:20;;;;;;;62.80;40.90;;;19.30;55.70;;;;;;5011724;28;20539;-69
2023/12/05 12:40:48;;;;;;;59.87;39.47;;;19.30;55.80;;;;;;5011869;28;20862;-68
2023/12/05 12:43:14;;;;;;;64.37;41.93;;;19.30;55.80;;;;;;5011805;28;20164;-68